Time;durP1;ratioP1;P1;durP2;ratioP2;P2;SDS_P1;SDS_P2;PMS_P1;PMS_P2;Temp;Humidity;BMP_temperature;BMP_pressure;BME280_temperature;BME280_humidity;BME280_pressure;Samples;Min_cycle;Max_cycle;Signal;HPM_P1;HPM_P2
2023/01/25 00:00:17;;;;;;;53.38;27.38;;;;;;;;;;4940234;29;20054;-90
2023/01/25 00:02:46;;;;;;;49.55;24.83;;;;;;;;;;4939948;29;20024;-91
2023/01/25 00:05:15;;;;;;;43.42;22.63;;;;;;;;;;4956809;29;20031;-90
2023/01/25 00:07:41;;;;;;;41.55;21.60;;;;;;;;;;4939828;29;20024;-91
2023/01/25 00:10:09;;;;;;;42.45;22.08;;;;;;;;;;4939784;29;20496;-89
2023/01/25 00:12:35;;;;;;;40.35;21.27;;;;;;;;;;4940040;29;20387;-90
2023/01/25 00:15:01;;;;;;;50.88;24.85;;;;;;;;;;4939919;29;20062;-91
2023/01/25 00:17:27;;;;;;;44.47;21.85;;;;;;;;;;4939531;29;20031;-91
2023/01/25 00:20:04;;;;;;;44.33;22.58;;;;;;;;;;4939428;29;20033;-89
2023/01/25 00:22:33;;;;;;;48.22;23.52;;;;;;;;;;4940057;29;20508;-90
2023/01/25 00:25:05;;;;;;;51.92;24.85;;;;;;;;;;4939558;29;20035;-90
2023/01/25 00:27:34;;;;;;;71.55;29.88;;;;;;;;;;4939405;29;20020;-90
2023/01/25 00:30:01;;;;;;;57.75;27.77;;;;;;;;;;4939315;29;20121;-90
2023/01/25 00:32:32;;;;;;;53.00;24.25;;;;;;;;;;4939348;29;20023;-90
2023/01/25 00:34:58;;;;;;;48.13;23.17;;;;;;;;;;4939693;29;20035;-91
2023/01/25 00:37:29;;;;;;;48.83;23.55;;;;;;;;;;4939859;29;20035;-90
2023/01/25 00:39:58;;;;;;;46.88;22.80;;;;;;;;;;4939586;29;20032;-91
2023/01/25 00:42:27;;;;;;;45.45;22.42;;;;;;;;;;4939630;29;20469;-91
2023/01/25 00:53:14;;;;;;;47.05;22.45;;;;;;;;;;5116643;23;20082;-90
2023/01/25 00:55:43;;;;;;;46.25;20.40;;;;;;;;;;4959139;28;20058;-91
2023/01/25 00:58:09;;;;;;;45.03;21.48;;;;;;;;;;4959308;28;20029;-90
2023/01/25 01:00:38;;;;;;;38.97;19.75;;;;;;;;;;4959778;28;20373;-91
2023/01/25 01:03:04;;;;;;;42.15;22.05;;;;;;;;;;4960319;28;20042;-89
2023/01/25 01:05:42;;;;;;;47.53;22.25;;;;;;;;;;4980533;28;20015;-89
2023/01/25 01:08:27;;;;;;;40.58;21.13;;;;;;;;;;4959812;28;20046;-90
2023/01/25 01:10:58;;;;;;;41.33;20.48;;;;;;;;;;4958209;28;20539;-90
2023/01/25 01:13:30;;;;;;;40.92;20.67;;;;;;;;;;4957962;28;20396;-90
2023/01/25 01:16:07;;;;;;;42.55;21.75;;;;;;;;;;4957915;28;20486;-90
2023/01/25 01:18:40;;;;;;;45.42;22.33;;;;;;;;;;4958075;28;20373;-89
2023/01/25 01:21:07;;;;;;;41.10;21.38;;;;;;;;;;4958672;28;20087;-90
2023/01/25 01:29:13;;;;;;;56.85;25.65;;;;;;;;;;5391755;23;20065;-91
2023/01/25 01:31:39;;;;;;;44.55;22.23;;;;;;;;;;4977093;28;20423;-91
2023/01/25 01:34:05;;;;;;;52.05;24.92;;;;;;;;;;4976362;28;20046;-91
2023/01/25 01:36:34;;;;;;;50.53;23.65;;;;;;;;;;4976843;28;20037;-85
2023/01/25 01:39:45;;;;;;;45.97;21.70;;;;;;;;;;4976722;28;20395;-91
2023/01/25 01:41:49;;;;;;;44.42;20.80;;;;;;;;;;4983430;28;20041;-91
2023/01/25 01:44:21;;;;;;;39.80;20.60;;;;;;;;;;4981165;28;20030;-87
2023/01/25 01:46:58;;;;;;;52.67;24.50;;;;;;;;;;4982664;28;20022;-91
2023/01/25 01:49:33;;;;;;;44.20;22.25;;;;;;;;;;4976707;28;20035;-88
2023/01/25 01:52:15;;;;;;;42.75;20.85;;;;;;;;;;4976752;28;20030;-91
2023/01/25 01:55:03;;;;;;;38.50;19.05;;;;;;;;;;4976927;28;20086;-92
2023/01/25 01:57:41;;;;;;;42.42;19.13;;;;;;;;;;4975971;28;20043;-87
2023/01/25 02:00:30;;;;;;;35.25;18.67;;;;;;;;;;4976158;28;20030;-87
2023/01/25 02:02:58;;;;;;;35.08;18.02;;;;;;;;;;4970333;28;20034;-89
2023/01/25 02:05:34;;;;;;;35.13;17.33;;;;;;;;;;4974992;28;20391;-89
2023/01/25 02:08:10;;;;;;;35.63;17.73;;;;;;;;;;4975790;28;20073;-86
2023/01/25 02:10:38;;;;;;;35.95;17.48;;;;;;;;;;4976439;28;20470;-89
2023/01/25 02:13:07;;;;;;;34.05;16.75;;;;;;;;;;4976188;28;20041;-87
2023/01/25 02:15:44;;;;;;;32.80;16.67;;;;;;;;;;4976093;28;20033;-89
2023/01/25 02:18:22;;;;;;;34.83;17.48;;;;;;;;;;4976119;28;20026;-89
2023/01/25 02:20:55;;;;;;;48.17;21.40;;;;;;;;;;4976046;28;20592;-90
2023/01/25 02:23:46;;;;;;;48.83;21.42;;;;;;;;;;4976200;28;20031;-88
2023/01/25 02:26:15;;;;;;;40.05;18.98;;;;;;;;;;4974613;28;20506;-87
2023/01/25 02:28:50;;;;;;;38.10;18.60;;;;;;;;;;4975562;28;20031;-89
2023/01/25 02:31:19;;;;;;;39.00;18.33;;;;;;;;;;4975643;28;20232;-90
2023/01/25 02:33:45;;;;;;;34.58;16.83;;;;;;;;;;4975962;28;20093;-91
2023/01/25 02:36:25;;;;;;;31.88;17.13;;;;;;;;;;4975701;28;20053;-89
2023/01/25 02:39:02;;;;;;;38.47;17.33;;;;;;;;;;4993171;28;20026;-88
2023/01/25 02:41:58;;;;;;;35.60;17.08;;;;;;;;;;4985202;28;20038;-90
2023/01/25 02:44:29;;;;;;;35.65;17.20;;;;;;;;;;4968107;28;20542;-89
2023/01/25 02:46:55;;;;;;;38.97;17.48;;;;;;;;;;4976471;28;20416;-89
2023/01/25 02:49:30;;;;;;;35.50;17.30;;;;;;;;;;4977851;28;20049;-89
2023/01/25 02:52:00;;;;;;;34.53;17.17;;;;;;;;;;4983059;28;20034;-88
2023/01/25 02:54:41;;;;;;;35.88;17.05;;;;;;;;;;5022709;23;20108;-89
2023/01/25 02:57:08;;;;;;;35.13;16.90;;;;;;;;;;4995557;28;20026;-89
2023/01/25 02:59:40;;;;;;;38.63;17.40;;;;;;;;;;4977556;28;20042;-88
2023/01/25 03:02:13;;;;;;;37.28;17.67;;;;;;;;;;4975241;28;20527;-89
2023/01/25 03:04:44;;;;;;;35.03;15.90;;;;;;;;;;4975470;28;20388;-87
2023/01/25 03:07:10;;;;;;;36.17;16.42;;;;;;;;;;4975327;28;20088;-89
2023/01/25 03:09:45;;;;;;;34.78;17.75;;;;;;;;;;4992617;28;20153;-89
2023/01/25 03:12:11;;;;;;;32.03;16.38;;;;;;;;;;4974973;28;20113;-89
2023/01/25 03:14:37;;;;;;;38.30;18.48;;;;;;;;;;4975193;28;20039;-89
2023/01/25 03:17:06;;;;;;;36.97;18.17;;;;;;;;;;4974901;28;20399;-89
2023/01/25 03:19:32;;;;;;;38.45;18.25;;;;;;;;;;4975074;28;20435;-89
2023/01/25 03:22:05;;;;;;;42.78;19.70;;;;;;;;;;4975229;28;20025;-90
2023/01/25 03:24:34;;;;;;;41.13;18.45;;;;;;;;;;4974969;28;20129;-89
2023/01/25 03:27:10;;;;;;;35.33;17.05;;;;;;;;;;4975030;28;20538;-89
2023/01/25 03:29:42;;;;;;;33.25;17.20;;;;;;;;;;4975085;28;20035;-88
2023/01/25 03:32:08;;;;;;;34.50;17.20;;;;;;;;;;4974674;28;20462;-89
2023/01/25 03:34:34;;;;;;;32.80;16.30;;;;;;;;;;4974891;28;20038;-90
2023/01/25 03:37:06;;;;;;;36.92;17.25;;;;;;;;;;4974749;28;20026;-88
2023/01/25 03:39:33;;;;;;;33.83;16.92;;;;;;;;;;4975441;28;20035;-90
2023/01/25 03:41:59;;;;;;;33.60;16.27;;;;;;;;;;4983686;28;20018;-89
2023/01/25 03:44:36;;;;;;;43.63;18.98;;;;;;;;;;4977921;28;20031;-90
2023/01/25 03:47:05;;;;;;;36.92;17.30;;;;;;;;;;4974681;28;20032;-89
2023/01/25 03:49:34;;;;;;;34.83;16.00;;;;;;;;;;4975308;28;20034;-88
2023/01/25 03:52:23;;;;;;;39.83;18.73;;;;;;;;;;4974842;28;20026;-90
2023/01/25 03:54:49;;;;;;;34.78;15.63;;;;;;;;;;4968323;28;20480;-89
2023/01/25 04:05:50;;;;;;;32.22;15.82;;;;;;;;;;5444414;23;20074;-90
2023/01/25 04:08:19;;;;;;;32.90;15.77;;;;;;;;;;4974502;28;20566;-89
2023/01/25 04:11:02;;;;;;;32.60;16.17;;;;;;;;;;4982172;28;20094;-89
2023/01/25 04:13:53;;;;;;;32.97;15.70;;;;;;;;;;4978015;28;20057;-90
2023/01/25 04:16:21;;;;;;;33.10;15.75;;;;;;;;;;4991111;28;20073;-90
2023/01/25 04:18:50;;;;;;;33.47;15.50;;;;;;;;;;4974969;28;20035;-90
2023/01/25 04:21:16;;;;;;;32.40;16.33;;;;;;;;;;4974668;28;20065;-89
2023/01/25 04:23:45;;;;;;;31.17;15.30;;;;;;;;;;4974316;28;20030;-89
2023/01/25 04:26:15;;;;;;;30.20;14.90;;;;;;;;;;4974291;28;20077;-89
2023/01/25 04:28:41;;;;;;;31.20;15.60;;;;;;;;;;4975744;28;20463;-89
2023/01/25 04:31:07;;;;;;;37.70;16.92;;;;;;;;;;4979476;28;20096;-90
2023/01/25 04:33:33;;;;;;;31.85;15.85;;;;;;;;;;4979751;28;20179;-89
2023/01/25 04:36:04;;;;;;;45.05;18.25;;;;;;;;;;4978913;28;20038;-89
2023/01/25 04:38:33;;;;;;;32.85;16.17;;;;;;;;;;4978983;28;20131;-90
2023/01/25 04:41:04;;;;;;;29.27;15.43;;;;;;;;;;4978827;28;20033;-89
2023/01/25 04:43:33;;;;;;;33.20;15.77;;;;;;;;;;4979604;28;20034;-90
2023/01/25 04:46:07;;;;;;;32.83;15.00;;;;;;;;;;4985395;28;20011;-87
2023/01/25 04:48:39;;;;;;;33.08;15.90;;;;;;;;;;4993749;28;20073;-89
2023/01/25 04:51:05;;;;;;;34.30;16.75;;;;;;;;;;4978366;28;20395;-90
2023/01/25 04:53:31;;;;;;;33.72;16.35;;;;;;;;;;4978164;28;20072;-89
2023/01/25 04:55:57;;;;;;;39.15;17.75;;;;;;;;;;4977597;28;20161;-89
2023/01/25 04:58:23;;;;;;;37.05;17.08;;;;;;;;;;4977913;28;20045;-89
2023/01/25 05:00:52;;;;;;;37.63;16.85;;;;;;;;;;4977874;28;20049;-87
2023/01/25 05:03:19;;;;;;;44.33;18.88;;;;;;;;;;4978109;28;20121;-89
2023/01/25 05:05:46;;;;;;;43.72;19.77;;;;;;;;;;4977076;28;20046;-89
2023/01/25 05:08:25;;;;;;;38.30;18.70;;;;;;;;;;4977203;28;20065;-89
2023/01/25 05:10:54;;;;;;;47.33;19.45;;;;;;;;;;4977402;28;20364;-90
2023/01/25 05:13:20;;;;;;;45.22;21.02;;;;;;;;;;4977327;28;20415;-90
2023/01/25 05:15:47;;;;;;;45.25;21.35;;;;;;;;;;4977180;28;20066;-90
2023/01/25 05:18:13;;;;;;;46.47;19.88;;;;;;;;;;4977388;28;20022;-89
2023/01/25 05:20:42;;;;;;;47.60;21.73;;;;;;;;;;4977194;28;20113;-87
2023/01/25 05:23:11;;;;;;;39.20;18.67;;;;;;;;;;4977490;28;20027;-90
2023/01/25 05:28:21;;;;;;;43.00;19.08;;;;;;;;;;4996789;28;20042;-89
2023/01/25 05:30:51;;;;;;;39.40;19.27;;;;;;;;;;4977453;28;20041;-90
2023/01/25 05:33:17;;;;;;;40.60;18.50;;;;;;;;;;4976869;28;20158;-90
2023/01/25 05:35:43;;;;;;;40.13;19.40;;;;;;;;;;4978114;28;20034;-88
2023/01/25 05:38:15;;;;;;;41.28;19.38;;;;;;;;;;4985538;28;20026;-90
2023/01/25 05:40:50;;;;;;;38.97;18.38;;;;;;;;;;4982366;28;20038;-91
2023/01/25 05:43:17;;;;;;;40.17;19.17;;;;;;;;;;4978579;28;20032;-89
2023/01/25 05:45:43;;;;;;;43.00;19.63;;;;;;;;;;4978722;28;20018;-88
2023/01/25 05:48:09;;;;;;;40.35;18.70;;;;;;;;;;4978248;28;20112;-89
2023/01/25 05:50:38;;;;;;;43.63;20.23;;;;;;;;;;4978837;28;20023;-89
2023/01/25 05:53:04;;;;;;;37.80;18.35;;;;;;;;;;4978863;28;20030;-88
2023/01/25 05:55:38;;;;;;;41.03;19.75;;;;;;;;;;4977600;28;20057;-87
2023/01/25 05:58:04;;;;;;;45.83;20.90;;;;;;;;;;4978273;28;20060;-89
2023/01/25 06:00:30;;;;;;;46.35;20.70;;;;;;;;;;4977855;28;20052;-88
2023/01/25 06:02:59;;;;;;;50.88;21.75;;;;;;;;;;4978440;28;20022;-90
2023/01/25 06:05:25;;;;;;;41.50;21.77;;;;;;;;;;4968359;28;20130;-87
2023/01/25 06:07:51;;;;;;;40.13;20.02;;;;;;;;;;4959046;28;20023;-88
2023/01/25 06:10:23;;;;;;;42.65;19.85;;;;;;;;;;4959044;28;20035;-90
2023/01/25 06:12:49;;;;;;;40.10;18.83;;;;;;;;;;4958486;28;20030;-91
2023/01/25 06:15:15;;;;;;;43.28;20.15;;;;;;;;;;4958441;28;20054;-90
2023/01/25 06:17:41;;;;;;;38.67;19.80;;;;;;;;;;4958825;28;20463;-91
2023/01/25 06:20:08;;;;;;;40.33;18.73;;;;;;;;;;4956378;28;20022;-93
2023/01/25 06:22:34;;;;;;;43.35;20.77;;;;;;;;;;4957067;28;20023;-91
2023/01/25 06:25:03;;;;;;;53.60;23.13;;;;;;;;;;4957634;28;20439;-89
2023/01/25 06:27:29;;;;;;;47.88;21.50;;;;;;;;;;4957438;28;20023;-91
2023/01/25 06:29:55;;;;;;;44.70;21.38;;;;;;;;;;4960044;28;20484;-88
2023/01/25 06:37:41;;;;;;;41.25;20.75;;;;;;;;;;4945937;29;20063;-89
2023/01/25 06:40:13;;;;;;;44.67;21.05;;;;;;;;;;4932870;29;20039;-92
2023/01/25 06:42:39;;;;;;;62.90;28.73;;;;;;;;;;4921641;29;20032;-87
2023/01/25 06:45:05;;;;;;;42.38;21.15;;;;;;;;;;4920652;29;20035;-88
2023/01/25 06:47:32;;;;;;;45.15;22.90;;;;;;;;;;4920004;29;20087;-90
2023/01/25 06:49:58;;;;;;;54.28;25.60;;;;;;;;;;4920527;29;20110;-90
2023/01/25 06:52:26;;;;;;;47.63;23.33;;;;;;;;;;4920069;29;20034;-90
2023/01/25 06:54:52;;;;;;;50.60;23.58;;;;;;;;;;4924567;29;20050;-89
2023/01/25 06:57:18;;;;;;;52.85;25.30;;;;;;;;;;4925063;29;20503;-91
2023/01/25 06:59:45;;;;;;;49.88;23.02;;;;;;;;;;4920304;29;20038;-90
2023/01/25 07:02:14;;;;;;;42.25;22.30;;;;;;;;;;4919819;29;20028;-88
2023/01/25 07:04:41;;;;;;;43.50;23.00;;;;;;;;;;4919907;29;20024;-88
2023/01/25 07:07:08;;;;;;;46.70;24.95;;;;;;;;;;4919735;29;20432;-86
2023/01/25 07:09:34;;;;;;;54.38;27.58;;;;;;;;;;4919339;29;20110;-87
2023/01/25 07:12:01;;;;;;;54.35;27.38;;;;;;;;;;4919441;29;20469;-88
2023/01/25 07:14:27;;;;;;;52.33;25.60;;;;;;;;;;4919667;29;20063;-89
2023/01/25 07:16:53;;;;;;;52.60;29.00;;;;;;;;;;4918587;29;20030;-91
2023/01/25 07:19:22;;;;;;;62.83;32.67;;;;;;;;;;4917590;29;20434;-92
2023/01/25 07:21:48;;;;;;;58.20;31.50;;;;;;;;;;4918268;29;20083;-86
2023/01/25 07:24:19;;;;;;;51.33;29.05;;;;;;;;;;4917589;29;20032;-88
2023/01/25 07:26:46;;;;;;;40.67;24.65;;;;;;;;;;4917556;29;20027;-90
2023/01/25 07:29:13;;;;;;;35.60;22.50;;;;;;;;;;4917873;29;20036;-89
2023/01/25 07:31:42;;;;;;;87.65;24.23;;;;;;;;;;4918331;29;20095;-89
2023/01/25 07:34:09;;;;;;;112.72;26.60;;;;;;;;;;4917645;29;20127;-89
2023/01/25 07:36:35;;;;;;;150.25;29.08;;;;;;;;;;4915252;29;20048;-88
2023/01/25 07:39:02;;;;;;;191.07;31.67;;;;;;;;;;4903110;29;20032;-88
2023/01/25 07:41:28;;;;;;;744.63;74.43;;;;;;;;;;4900315;29;20027;-89
2023/01/25 07:43:54;;;;;;;501.60;49.20;;;;;;;;;;4900619;29;20063;-88
2023/01/25 07:46:20;;;;;;;847.08;65.18;;;;;;;;;;4900788;29;20759;-89
2023/01/25 07:48:51;;;;;;;982.28;104.13;;;;;;;;;;4900401;29;20120;-89
2023/01/25 07:51:25;;;;;;;357.73;40.35;;;;;;;;;;4900923;29;20036;-89
2023/01/25 07:53:59;;;;;;;379.15;49.20;;;;;;;;;;4900875;29;20044;-90
2023/01/25 07:56:29;;;;;;;159.73;27.50;;;;;;;;;;4900300;29;20028;-91
2023/01/25 07:58:56;;;;;;;26.45;18.67;;;;;;;;;;4900645;29;20021;-88
2023/01/25 08:01:26;;;;;;;45.88;24.25;;;;;;;;;;4899974;29;20099;-91
2023/01/25 08:03:55;;;;;;;26.33;19.77;;;;;;;;;;4902623;29;20028;-90
2023/01/25 08:06:30;;;;;;;23.80;18.77;;;;;;;;;;4904365;29;20051;-90
2023/01/25 08:08:57;;;;;;;21.58;17.75;;;;;;;;;;4921006;29;20048;-90
2023/01/25 08:11:24;;;;;;;21.05;16.05;;;;;;;;;;4904414;29;20043;-91
2023/01/25 08:13:50;;;;;;;21.20;17.48;;;;;;;;;;4903666;29;20047;-90
2023/01/25 08:16:18;;;;;;;23.35;18.08;;;;;;;;;;4903951;29;20619;-90
2023/01/25 08:18:50;;;;;;;20.52;16.73;;;;;;;;;;4904557;29;20103;-91
2023/01/25 08:21:16;;;;;;;23.13;19.27;;;;;;;;;;4904429;29;20028;-89
2023/01/25 08:23:43;;;;;;;26.25;22.55;;;;;;;;;;4904730;29;20444;-89
2023/01/25 08:26:13;;;;;;;27.73;21.23;;;;;;;;;;4906106;29;20028;-90
2023/01/25 08:28:43;;;;;;;27.92;20.88;;;;;;;;;;4905809;29;20573;-90
2023/01/25 08:31:09;;;;;;;25.25;19.17;;;;;;;;;;4915371;29;20023;-90
2023/01/25 08:33:47;;;;;;;17.17;13.10;;;;;;;;;;4911082;29;20100;-90
2023/01/25 08:36:14;;;;;;;15.52;13.00;;;;;;;;;;4900525;29;20056;-90
2023/01/25 08:38:40;;;;;;;21.05;14.75;;;;;;;;;;4899361;29;20037;-90
2023/01/25 08:41:15;;;;;;;15.00;12.50;;;;;;;;;;4899365;29;20032;-88
2023/01/25 08:43:44;;;;;;;11.02;9.05;;;;;;;;;;4889014;29;20132;-88
2023/01/25 08:46:13;;;;;;;11.90;9.93;;;;;;;;;;4881734;29;20025;-87
2023/01/25 08:48:39;;;;;;;12.07;9.18;;;;;;;;;;4883706;29;20498;-87
2023/01/25 08:51:08;;;;;;;11.35;9.57;;;;;;;;;;4883690;29;20028;-88
2023/01/25 08:53:37;;;;;;;11.27;9.45;;;;;;;;;;4882021;29;20067;-88
2023/01/25 08:56:06;;;;;;;13.02;10.77;;;;;;;;;;4883642;29;20489;-89
2023/01/25 08:58:33;;;;;;;14.13;10.60;;;;;;;;;;4882574;29;20032;-88
2023/01/25 09:01:09;;;;;;;12.48;10.43;;;;;;;;;;4898935;29;20024;-88
2023/01/25 09:03:43;;;;;;;12.63;10.48;;;;;;;;;;4898427;29;20043;-89
2023/01/25 09:06:12;;;;;;;11.95;9.27;;;;;;;;;;4899824;29;20031;-89
2023/01/25 09:08:47;;;;;;;11.90;9.60;;;;;;;;;;4893579;29;20509;-88
2023/01/25 09:11:18;;;;;;;12.55;9.45;;;;;;;;;;4902473;29;20039;-89
2023/01/25 09:13:53;;;;;;;11.57;9.52;;;;;;;;;;4902498;29;20382;-89
2023/01/25 09:16:27;;;;;;;10.50;8.60;;;;;;;;;;4902121;29;20107;-89
2023/01/25 09:18:57;;;;;;;13.27;10.82;;;;;;;;;;4902040;29;20050;-89
2023/01/25 09:21:26;;;;;;;10.85;9.48;;;;;;;;;;4901374;29;20028;-90
2023/01/25 09:23:53;;;;;;;18.30;11.25;;;;;;;;;;4902688;29;20040;-89
2023/01/25 09:26:25;;;;;;;14.45;11.50;;;;;;;;;;4902880;29;20430;-89
2023/01/25 09:28:56;;;;;;;14.80;13.05;;;;;;;;;;4902345;29;20080;-89
2023/01/25 09:31:23;;;;;;;10.43;9.18;;;;;;;;;;4902936;29;20038;-88
2023/01/25 09:33:52;;;;;;;11.13;9.05;;;;;;;;;;4901823;29;20052;-88
2023/01/25 09:36:24;;;;;;;9.82;8.55;;;;;;;;;;4902437;29;20052;-89
2023/01/25 09:44:57;;;;;;;12.88;10.75;;;;;;;;;;4977041;28;20054;-88
2023/01/25 09:47:32;;;;;;;13.27;11.77;;;;;;;;;;4959594;28;20033;-88
2023/01/25 09:50:11;;;;;;;14.93;12.70;;;;;;;;;;4959102;28;20042;-87
2023/01/25 09:53:09;;;;;;;14.48;12.32;;;;;;;;;;4957265;28;20169;-88
2023/01/25 09:55:45;;;;;;;14.48;11.90;;;;;;;;;;4864060;29;20088;-88
2023/01/25 09:58:23;;;;;;;15.55;13.93;;;;;;;;;;4896294;28;20031;-89
2023/01/25 10:00:54;;;;;;;14.63;13.02;;;;;;;;;;4958482;28;20031;-87
2023/01/25 10:03:27;;;;;;;12.77;10.57;;;;;;;;;;4958706;28;20109;-88
2023/01/25 10:06:01;;;;;;;17.07;14.37;;;;;;;;;;4959269;28;20057;-87
2023/01/25 10:08:47;;;;;;;18.40;14.95;;;;;;;;;;4958963;28;20174;-87
2023/01/25 10:11:22;;;;;;;19.50;16.05;;;;;;;;;;4958607;28;20027;-87
2023/01/25 10:13:48;;;;;;;17.52;13.63;;;;;;;;;;4958742;28;20137;-87
2023/01/25 10:16:22;;;;;;;18.50;13.48;;;;;;;;;;4958747;28;20030;-87
2023/01/25 10:18:48;;;;;;;19.50;15.98;;;;;;;;;;4959238;28;20031;-86
2023/01/25 10:21:24;;;;;;;18.33;13.95;;;;;;;;;;4976809;28;20031;-86
2023/01/25 10:23:50;;;;;;;16.25;13.32;;;;;;;;;;4975072;28;20074;-86
2023/01/25 10:26:30;;;;;;;19.08;14.50;;;;;;;;;;4961596;28;20031;-87
2023/01/25 10:29:07;;;;;;;16.65;13.18;;;;;;;;;;4993880;28;20127;-86
2023/01/25 10:31:43;;;;;;;17.60;13.20;;;;;;;;;;4958176;28;20026;-86
2023/01/25 10:34:23;;;;;;;19.35;14.43;;;;;;;;;;4958143;28;20046;-86
2023/01/25 10:36:56;;;;;;;18.38;13.98;;;;;;;;;;4971861;28;20110;-86
2023/01/25 10:39:22;;;;;;;18.67;13.88;;;;;;;;;;4958013;28;20030;-86
2023/01/25 10:41:51;;;;;;;18.83;14.27;;;;;;;;;;4958018;28;20062;-86
2023/01/25 10:44:27;;;;;;;21.02;15.95;;;;;;;;;;4963976;28;20027;-87
2023/01/25 10:47:12;;;;;;;20.33;14.93;;;;;;;;;;4977132;28;20046;-87
2023/01/25 10:49:42;;;;;;;17.90;14.13;;;;;;;;;;4957964;28;20044;-86
2023/01/25 10:52:14;;;;;;;15.65;13.13;;;;;;;;;;4957880;28;20034;-86
2023/01/25 10:54:49;;;;;;;17.77;13.95;;;;;;;;;;4957772;28;20134;-86
2023/01/25 10:57:22;;;;;;;20.38;15.65;;;;;;;;;;4957848;28;20042;-86
2023/01/25 10:59:50;;;;;;;20.02;14.23;;;;;;;;;;4957907;28;20036;-86
2023/01/25 11:02:35;;;;;;;20.35;14.98;;;;;;;;;;4957907;28;20031;-86
2023/01/25 11:05:19;;;;;;;24.02;16.83;;;;;;;;;;4957774;28;20026;-85
2023/01/25 11:07:46;;;;;;;21.23;14.82;;;;;;;;;;4957689;28;20031;-86
2023/01/25 11:10:28;;;;;;;20.38;14.18;;;;;;;;;;4957821;28;20022;-86
2023/01/25 11:13:11;;;;;;;24.95;16.85;;;;;;;;;;4957676;28;20030;-86
2023/01/25 11:15:37;;;;;;;23.08;15.27;;;;;;;;;;4958034;28;20027;-87
2023/01/25 11:18:10;;;;;;;20.08;13.40;;;;;;;;;;4957697;28;20499;-87
2023/01/25 11:20:37;;;;;;;23.13;14.40;;;;;;;;;;4957415;28;20030;-87
2023/01/25 11:23:20;;;;;;;28.83;18.23;;;;;;;;;;4957406;28;20038;-88
2023/01/25 11:25:46;;;;;;;36.53;22.98;;;;;;;;;;4976753;28;20062;-87
2023/01/25 11:28:23;;;;;;;40.83;25.98;;;;;;;;;;4977174;28;20088;-86
2023/01/25 11:30:55;;;;;;;36.80;22.98;;;;;;;;;;4994820;28;20058;-87
2023/01/25 11:33:31;;;;;;;37.33;22.02;;;;;;;;;;4976872;28;20066;-89
2023/01/25 11:36:16;;;;;;;35.63;22.17;;;;;;;;;;4973415;28;20038;-87
2023/01/25 11:39:20;;;;;;;35.47;22.63;;;;;;;;;;4963634;28;20187;-90
2023/01/25 11:41:58;;;;;;;38.78;23.45;;;;;;;;;;4907170;29;20048;-88
2023/01/25 11:44:38;;;;;;;37.90;23.13;;;;;;;;;;4906431;29;20027;-87
2023/01/25 11:47:23;;;;;;;37.00;21.95;;;;;;;;;;4975293;28;20038;-89
2023/01/25 11:49:55;;;;;;;34.88;21.85;;;;;;;;;;4963687;28;20030;-87
2023/01/25 11:52:49;;;;;;;37.03;22.65;;;;;;;;;;4963749;28;20049;-88
2023/01/25 11:55:24;;;;;;;38.42;22.85;;;;;;;;;;4963461;28;20134;-88
2023/01/25 11:58:00;;;;;;;35.60;22.55;;;;;;;;;;4963668;28;20518;-89
2023/01/25 12:00:35;;;;;;;36.53;23.20;;;;;;;;;;4963733;28;20574;-87
2023/01/25 12:03:26;;;;;;;35.80;22.17;;;;;;;;;;4963888;28;20023;-87
2023/01/25 12:06:08;;;;;;;44.15;25.02;;;;;;;;;;4963593;28;20034;-88
2023/01/25 12:11:56;;;;;;;53.53;32.40;;;;;;;;;;4995392;23;20460;-87
2023/01/25 12:14:35;;;;;;;44.40;26.48;;;;;;;;;;4963924;28;20176;-87
2023/01/25 12:17:01;;;;;;;38.80;23.85;;;;;;;;;;4982199;28;20051;-86
2023/01/25 12:19:33;;;;;;;40.30;23.98;;;;;;;;;;4964569;28;20085;-87
2023/01/25 12:22:28;;;;;;;36.92;23.30;;;;;;;;;;4965093;28;20027;-86
2023/01/25 12:34:02;;;;;;;39.17;22.87;;;;;;;;;;4980326;28;20045;-87
2023/01/25 12:36:31;;;;;;;;;;;;;;;;;;4963678;28;20309;-87
2023/01/25 12:39:23;;;;;;;41.97;25.33;;;;;;;;;;4963260;28;20329;-87
2023/01/25 12:42:08;;;;;;;40.88;23.17;;;;;;;;;;4952587;28;20043;-87
2023/01/25 12:44:41;;;;;;;41.83;24.67;;;;;;;;;;4963137;28;20031;-87
2023/01/25 12:47:23;;;;;;;49.63;28.65;;;;;;;;;;4964129;28;20026;-87
2023/01/25 12:49:52;;;;;;;53.17;31.05;;;;;;;;;;4960210;28;20031;-86
2023/01/25 12:52:33;;;;;;;52.92;30.30;;;;;;;;;;4960008;28;20388;-87
2023/01/25 12:55:10;;;;;;;46.53;27.70;;;;;;;;;;4960076;28;20129;-87
2023/01/25 12:57:55;;;;;;;42.63;25.80;;;;;;;;;;4960067;28;20110;-86
2023/01/25 13:00:26;;;;;;;43.92;25.77;;;;;;;;;;4960212;28;20042;-87
2023/01/25 13:03:01;;;;;;;43.53;25.98;;;;;;;;;;4957638;28;20472;-87
2023/01/25 13:05:55;;;;;;;47.50;25.98;;;;;;;;;;4960235;28;20118;-86
2023/01/25 13:08:43;;;;;;;48.03;27.35;;;;;;;;;;4959682;28;20027;-86
2023/01/25 13:11:47;;;;;;;48.63;27.75;;;;;;;;;;4976981;28;20440;-86
2023/01/25 13:14:16;;;;;;;51.15;27.13;;;;;;;;;;4871394;29;20498;-86
2023/01/25 13:16:42;;;;;;;48.05;27.08;;;;;;;;;;4880670;29;20142;-87
2023/01/25 13:19:37;;;;;;;49.25;28.48;;;;;;;;;;4925345;28;20138;-86
2023/01/25 13:22:04;;;;;;;57.47;31.63;;;;;;;;;;4959500;28;20062;-86
2023/01/25 13:24:31;;;;;;;61.58;33.75;;;;;;;;;;4959580;28;20069;-86
2023/01/25 13:27:18;;;;;;;54.28;28.63;;;;;;;;;;4959527;28;20035;-86
2023/01/25 13:30:15;;;;;;;58.53;30.40;;;;;;;;;;4936236;29;20043;-86
2023/01/25 13:32:44;;;;;;;56.10;29.45;;;;;;;;;;4920502;29;20051;-87
2023/01/25 13:35:28;;;;;;;54.08;28.80;;;;;;;;;;4919947;29;20036;-86
2023/01/25 13:38:15;;;;;;;52.60;27.67;;;;;;;;;;4920032;29;20036;-86
2023/01/25 13:40:44;;;;;;;66.20;31.88;;;;;;;;;;4920316;29;20063;-88
2023/01/25 13:43:16;;;;;;;59.97;31.73;;;;;;;;;;4923841;29;20334;-87
2023/01/25 13:45:43;;;;;;;48.90;28.02;;;;;;;;;;4920166;29;20071;-86
2023/01/25 13:48:20;;;;;;;50.55;27.05;;;;;;;;;;4920124;29;20038;-86
2023/01/25 13:51:27;;;;;;;47.38;26.20;;;;;;;;;;4917712;29;20493;-90
2023/01/25 13:54:35;;;;;;;46.83;22.42;;;;;;;;;;4993278;23;20440;-88
2023/01/25 13:57:15;;;;;;;42.30;22.77;;;;;;;;;;4939525;29;20055;-87
2023/01/25 13:59:45;;;;;;;31.60;17.95;;;;;;;;;;4935427;29;20617;-87
2023/01/25 14:02:22;;;;;;;31.95;19.35;;;;;;;;;;4939696;29;20031;-87
2023/01/25 14:04:50;;;;;;;32.15;20.65;;;;;;;;;;4939608;29;20055;-88
2023/01/25 14:07:20;;;;;;;37.10;23.10;;;;;;;;;;4939350;29;20480;-87
2023/01/25 14:09:47;;;;;;;28.92;16.25;;;;;;;;;;4939621;29;20041;-87
2023/01/25 14:12:23;;;;;;;25.45;14.93;;;;;;;;;;4939655;29;20074;-89
2023/01/25 14:14:56;;;;;;;27.08;14.98;;;;;;;;;;4939383;29;20126;-88
2023/01/25 14:20:04;;;;;;;25.92;14.25;;;;;;;;;;5032464;23;20530;-88
2023/01/25 14:22:39;;;;;;;27.63;16.67;;;;;;;;;;4989773;28;20018;-87
2023/01/25 14:25:06;;;;;;;27.10;16.00;;;;;;;;;;4988304;28;20061;-87
2023/01/25 14:27:33;;;;;;;30.67;17.60;;;;;;;;;;4978004;28;20034;-89
2023/01/25 14:30:04;;;;;;;36.78;22.10;;;;;;;;;;4977718;28;20080;-87
2023/01/25 14:32:30;;;;;;;31.33;18.55;;;;;;;;;;4977417;28;20030;-89
2023/01/25 14:38:26;;;;;;;44.85;24.42;;;;;;;;;;4995083;28;20077;-87
2023/01/25 14:41:00;;;;;;;54.67;29.63;;;;;;;;;;4977977;28;20030;-88
2023/01/25 14:43:30;;;;;;;40.10;22.33;;;;;;;;;;4977342;28;20116;-88
2023/01/25 14:45:59;;;;;;;49.65;24.50;;;;;;;;;;4977319;28;20026;-87
2023/01/25 14:48:47;;;;;;;85.18;36.58;;;;;;;;;;4977386;28;20018;-90
2023/01/25 14:51:22;;;;;;;51.20;25.77;;;;;;;;;;4977315;28;20027;-88
2023/01/25 14:54:00;;;;;;;45.17;23.67;;;;;;;;;;4977326;28;20076;-86
2023/01/25 14:56:48;;;;;;;51.13;26.05;;;;;;;;;;4994445;28;20051;-87
2023/01/25 14:59:47;;;;;;;60.05;31.38;;;;;;;;;;4977527;28;20065;-87
2023/01/25 15:02:34;;;;;;;39.40;22.52;;;;;;;;;;4979998;28;20053;-87
2023/01/25 15:05:26;;;;;;;63.08;30.17;;;;;;;;;;4986659;28;20031;-87
2023/01/25 15:08:07;;;;;;;33.47;19.38;;;;;;;;;;4979545;28;20098;-88
2023/01/25 15:10:52;;;;;;;30.83;17.25;;;;;;;;;;4977058;28;20064;-87
2023/01/25 15:13:29;;;;;;;29.83;17.27;;;;;;;;;;4976930;28;20140;-87
2023/01/25 15:19:42;;;;;;;33.25;18.85;;;;;;;;;;4991964;28;20056;-87
2023/01/25 15:22:23;;;;;;;28.25;15.63;;;;;;;;;;4977023;28;20050;-88
2023/01/25 15:24:56;;;;;;;27.77;16.08;;;;;;;;;;4976876;28;20030;-88
2023/01/25 15:30:40;;;;;;;38.95;19.73;;;;;;;;;;4994546;28;20501;-86
2023/01/25 15:42:12;;;;;;;32.08;16.85;;;;;;;;;;4994440;28;20400;-88
2023/01/25 15:44:51;;;;;;;;;;;;;;;;;;;;;
2023/01/25 15:47:20;;;;;;;30.65;17.65;;;;;;;;;;4994582;28;20026;-88
2023/01/25 15:49:53;;;;;;;25.95;16.27;;;;;;;;;;4984694;28;20077;-88
2023/01/25 15:52:19;;;;;;;32.58;17.77;;;;;;;;;;4978436;28;20054;-87
2023/01/25 15:54:48;;;;;;;34.17;19.80;;;;;;;;;;4976966;28;20035;-87
2023/01/25 15:57:19;;;;;;;30.55;17.05;;;;;;;;;;4976660;28;20387;-87
2023/01/25 15:59:46;;;;;;;27.10;15.57;;;;;;;;;;4976582;28;20432;-87